createdAt,value
2023-01-07T00:01:44.884Z,99502.31
2023-01-07T00:04:14.343Z,99503.19
2023-01-07T00:06:43.136Z,99507.69
2023-01-07T00:09:14.570Z,99503.53
2023-01-07T00:11:42.364Z,99502.81
2023-01-07T00:14:12.692Z,99500.34
2023-01-07T00:16:43.680Z,99502.75
2023-01-07T00:19:14.331Z,99500.38
2023-01-07T00:21:42.092Z,99486.72
2023-01-07T00:24:11.093Z,99487.28
2023-01-07T00:26:40.837Z,99500.44
2023-01-07T00:29:09.070Z,99502.97
2023-01-07T00:31:38.781Z,99496.97
2023-01-07T00:34:09.871Z,99503.91
2023-01-07T00:36:44.615Z,99498.84
2023-01-07T00:39:16.265Z,99470.41
2023-01-07T00:42:07.473Z,99495.41
2023-01-07T00:44:39.677Z,99490.88
2023-01-07T00:47:09.600Z,99484.91
2023-01-07T00:49:38.150Z,99467.75
2023-01-07T00:52:06.335Z,99476.09
2023-01-07T00:54:34.099Z,99478.00
2023-01-07T00:57:03.250Z,99484.09
2023-01-07T00:59:30.910Z,99483.38
2023-01-07T01:01:58.695Z,99477.25
2023-01-07T01:04:26.866Z,99472.75
2023-01-07T01:06:54.748Z,99469.38
2023-01-07T01:09:27.431Z,99463.16
2023-01-07T01:11:58.545Z,99452.78
2023-01-07T01:14:28.096Z,99445.88
2023-01-07T01:16:55.955Z,99453.06
2023-01-07T01:19:23.651Z,99439.53
2023-01-07T01:21:51.432Z,99451.72
2023-01-07T01:24:19.251Z,99463.75
2023-01-07T01:26:46.808Z,99456.88
2023-01-07T01:29:14.501Z,99457.94
2023-01-07T01:31:43.596Z,99457.03
2023-01-07T01:34:11.216Z,99450.81
2023-01-07T01:36:38.860Z,99451.88
2023-01-07T01:39:06.577Z,99458.84
2023-01-07T01:41:34.309Z,99452.06
2023-01-07T01:44:02.316Z,99452.06
2023-01-07T01:46:35.074Z,99449.28
2023-01-07T01:49:07.001Z,99455.41
2023-01-07T01:51:38.911Z,99451.78
2023-01-07T01:54:09.006Z,99433.72
2023-01-07T01:56:40.440Z,99450.19
2023-01-07T01:59:10.729Z,99440.66
2023-01-07T02:01:38.771Z,99444.13
2023-01-07T02:04:14.135Z,99445.09
2023-01-07T02:06:45.109Z,99436.88
2023-01-07T02:09:13.046Z,99437.91
2023-01-07T02:11:47.675Z,99428.38
2023-01-07T02:14:28.673Z,99433.00
2023-01-07T02:17:00.443Z,99431.03
2023-01-07T02:20:02.869Z,99423.25
2023-01-07T02:22:46.093Z,99421.53
2023-01-07T02:25:41.942Z,99432.97
2023-01-07T02:28:22.101Z,99426.16
2023-01-07T02:31:08.653Z,99425.16
2023-01-07T02:33:44.160Z,99416.50
2023-01-07T02:36:19.139Z,99416.63
2023-01-07T02:38:57.517Z,99404.50
2023-01-07T02:41:31.605Z,99414.66
2023-01-07T02:44:05.113Z,99402.38
2023-01-07T02:46:35.755Z,99405.09
2023-01-07T02:49:08.846Z,99405.75
2023-01-07T02:51:38.059Z,99399.34
2023-01-07T02:54:07.267Z,99404.72
2023-01-07T02:56:45.634Z,99398.78
2023-01-07T02:59:33.199Z,99395.34
2023-01-07T03:02:17.782Z,99396.06
2023-01-07T03:05:00.915Z,99393.63
2023-01-07T03:07:41.224Z,99393.59
2023-01-07T03:10:12.997Z,99394.53
2023-01-07T03:12:43.945Z,99389.34
2023-01-07T03:15:16.079Z,99387.63
2023-01-07T03:17:45.883Z,99386.72
2023-01-07T03:20:15.045Z,99385.97
2023-01-07T03:22:45.037Z,99385.97
2023-01-07T03:25:14.589Z,99382.38
2023-01-07T03:27:44.247Z,99379.81
2023-01-07T03:30:15.219Z,99381.41
2023-01-07T03:32:45.585Z,99370.09
2023-01-07T03:35:14.640Z,99373.53
2023-01-07T03:37:43.803Z,99380.66
2023-01-07T03:40:12.588Z,99368.53
2023-01-07T03:42:40.599Z,99363.94
2023-01-07T03:45:10.617Z,99366.81
2023-01-07T03:47:39.573Z,99369.28
2023-01-07T03:50:07.815Z,99355.53
2023-01-07T03:52:36.721Z,99362.16
2023-01-07T03:55:05.436Z,99361.19
2023-01-07T03:57:33.165Z,99353.56
2023-01-07T04:00:00.909Z,99337.91
2023-01-07T04:02:28.548Z,99346.41
2023-01-07T04:04:56.128Z,99343.00
2023-01-07T04:07:23.737Z,99336.78
2023-01-07T04:09:52.707Z,99344.03
2023-01-07T04:12:20.365Z,99339.63
2023-01-07T04:14:47.964Z,99340.50
2023-01-07T04:17:15.545Z,99335.34
2023-01-07T04:19:43.076Z,99335.94
2023-01-07T04:22:11.533Z,99329.97
2023-01-07T04:24:39.100Z,99328.97
2023-01-07T04:27:08.069Z,99318.75
2023-01-07T04:29:35.625Z,99323.97
2023-01-07T04:32:03.186Z,99319.63
2023-01-07T04:34:30.804Z,99297.13
2023-01-07T04:36:58.448Z,99307.50
2023-01-07T04:39:26.133Z,99316.09
2023-01-07T04:41:53.775Z,99308.44
2023-01-07T04:44:22.698Z,99300.00
2023-01-07T04:46:50.290Z,99297.78
2023-01-07T04:49:18.255Z,99287.06
2023-01-07T04:51:45.869Z,99281.78
2023-01-07T04:54:13.576Z,99290.72
2023-01-07T04:56:41.218Z,99253.50
2023-01-07T04:59:08.821Z,99281.03
2023-01-07T05:01:37.903Z,99282.72
2023-01-07T05:04:05.936Z,99280.59
2023-01-07T05:06:33.569Z,99280.69
2023-01-07T05:09:01.131Z,99274.16
2023-01-07T05:11:28.726Z,99272.16
2023-01-07T05:13:56.356Z,99269.69
2023-01-07T05:16:24.006Z,99256.72
2023-01-07T05:18:53.062Z,99251.66
2023-01-07T05:21:20.643Z,99257.53
2023-01-07T05:23:48.243Z,99229.16
2023-01-07T05:26:15.799Z,99263.22
2023-01-07T05:28:43.422Z,99261.56
2023-01-07T05:31:11.049Z,99260.75
2023-01-07T05:33:38.794Z,99256.63
2023-01-07T05:36:08.380Z,99257.16
2023-01-07T05:38:35.960Z,99250.59
2023-01-07T05:41:03.574Z,99245.50
2023-01-07T05:43:31.183Z,99254.34
2023-01-07T05:45:59.176Z,99254.09
2023-01-07T05:48:27.009Z,99243.91
2023-01-07T05:50:54.614Z,99254.25
2023-01-07T05:53:23.608Z,99241.44
2023-01-07T05:55:56.903Z,99246.66
2023-01-07T05:58:24.625Z,99243.47
2023-01-07T06:00:52.398Z,99186.88
2023-01-07T06:03:21.228Z,99243.44
2023-01-07T06:05:49.027Z,99230.28
2023-01-07T06:08:16.646Z,99226.22
2023-01-07T06:10:45.601Z,99234.59
2023-01-07T06:13:13.117Z,99232.06
2023-01-07T06:15:40.777Z,99235.44
2023-01-07T06:18:08.469Z,99231.31
2023-01-07T06:20:36.333Z,99223.88
2023-01-07T06:23:04.936Z,99222.66
2023-01-07T06:25:32.651Z,99219.38
2023-01-07T06:28:01.619Z,99218.72
2023-01-07T06:30:29.244Z,99218.75
2023-01-07T06:32:56.907Z,99209.97
2023-01-07T06:35:24.500Z,99212.50
2023-01-07T06:37:52.167Z,99205.41
2023-01-07T06:40:19.756Z,99186.66
2023-01-07T06:42:47.373Z,99205.00
2023-01-07T06:45:16.361Z,99205.63
2023-01-07T06:47:43.992Z,99200.31
2023-01-07T06:50:11.544Z,99197.91
2023-01-07T06:52:39.125Z,99196.63
2023-01-07T06:55:07.112Z,99188.78
2023-01-07T06:57:34.712Z,99183.22
2023-01-07T07:00:02.521Z,99181.66
2023-01-07T07:02:31.684Z,99178.00
2023-01-07T07:04:59.354Z,99171.16
2023-01-07T07:07:26.976Z,99175.66
2023-01-07T07:09:54.512Z,99175.56
2023-01-07T07:12:22.211Z,99170.34
2023-01-07T07:14:49.776Z,99168.84
2023-01-07T07:17:17.729Z,99169.75
2023-01-07T07:19:46.868Z,99164.94
2023-01-07T07:22:14.490Z,99168.75
2023-01-07T07:24:42.234Z,99164.19
2023-01-07T07:27:09.794Z,99157.63
2023-01-07T07:29:37.388Z,99118.25
2023-01-07T07:32:05.504Z,99157.59
2023-01-07T07:34:35.682Z,99157.00
2023-01-07T07:37:04.908Z,99157.28
2023-01-07T07:39:33.668Z,99154.91
2023-01-07T07:42:05.985Z,99158.28
2023-01-07T07:44:33.661Z,99151.22
2023-01-07T07:47:01.287Z,99151.84
2023-01-07T07:49:29.769Z,99150.94
2023-01-07T07:51:57.483Z,99146.75
2023-01-07T07:54:28.095Z,99150.88
2023-01-07T07:56:56.083Z,99146.75
2023-01-07T07:59:23.812Z,99150.66
2023-01-07T08:01:51.612Z,99146.16
2023-01-07T08:04:20.072Z,99135.56
2023-01-07T08:06:47.863Z,99127.09
2023-01-07T08:09:16.390Z,99140.16
2023-01-07T08:11:46.632Z,99139.53
2023-01-07T08:16:44.704Z,99117.09
2023-01-07T08:21:39.167Z,99127.19
2023-01-07T08:26:34.413Z,99118.00
2023-01-07T08:37:06.605Z,99112.56
2023-01-07T08:42:04.158Z,99101.88
2023-01-07T08:47:01.207Z,99093.94
2023-01-07T08:51:58.253Z,99084.97
2023-01-07T08:57:04.309Z,99032.53
2023-01-07T08:59:32.183Z,99071.41
2023-01-07T09:01:59.978Z,99059.34
2023-01-07T09:04:27.663Z,99067.25
2023-01-07T09:06:55.609Z,99068.72
2023-01-07T09:09:23.338Z,99057.41
2023-01-07T09:11:51.250Z,99043.03
2023-01-07T09:14:20.203Z,99028.47
2023-01-07T09:16:48.050Z,99040.44
2023-01-07T09:19:15.825Z,99051.59
2023-01-07T09:21:43.578Z,99040.63
2023-01-07T09:24:11.224Z,99049.00
2023-01-07T09:26:38.926Z,99052.50
2023-01-07T09:29:06.604Z,99048.16
2023-01-07T09:31:35.647Z,99044.59
2023-01-07T09:34:03.640Z,99050.66
2023-01-07T09:36:31.281Z,99047.00
2023-01-07T09:38:58.914Z,99033.47
2023-01-07T09:41:33.360Z,99051.03
2023-01-07T09:44:10.721Z,99053.44
2023-01-07T09:46:39.775Z,99047.25
2023-01-07T09:49:09.273Z,99053.25
2023-01-07T09:51:39.475Z,99030.13
2023-01-07T09:54:18.105Z,99055.31
2023-01-07T09:56:46.362Z,99050.84
2023-01-07T09:59:14.739Z,99048.03
2023-01-07T10:01:47.954Z,99024.53
2023-01-07T10:04:24.110Z,99042.56
2023-01-07T10:06:58.280Z,99033.03
2023-01-07T10:09:33.359Z,99030.47
2023-01-07T10:12:07.443Z,99024.28
2023-01-07T10:14:45.262Z,99030.69
2023-01-07T10:17:22.115Z,99036.50
2023-01-07T10:19:55.973Z,99023.25
2023-01-07T10:22:28.236Z,99010.97
2023-01-07T10:24:58.987Z,98984.31
2023-01-07T10:27:31.380Z,98995.63
2023-01-07T10:30:03.082Z,98991.47
2023-01-07T10:32:34.215Z,98986.59
2023-01-07T10:35:02.640Z,98983.78
2023-01-07T10:37:33.758Z,98973.31
2023-01-07T10:40:11.850Z,98971.16
2023-01-07T10:42:42.331Z,98953.56
2023-01-07T10:45:38.724Z,98941.66
2023-01-07T10:48:17.314Z,98954.81
2023-01-07T10:50:56.482Z,98944.53
2023-01-07T10:53:32.244Z,98939.41
2023-01-07T10:56:08.868Z,98949.59
2023-01-07T10:58:39.808Z,98954.16
2023-01-07T11:01:08.487Z,98947.19
2023-01-07T11:03:40.180Z,98941.78
2023-01-07T11:06:11.448Z,98943.50
2023-01-07T11:08:41.304Z,98943.31
2023-01-07T11:11:16.567Z,98945.53
2023-01-07T11:13:47.727Z,98920.94
2023-01-07T11:16:20.549Z,98933.97
2023-01-07T11:18:54.057Z,98925.59
2023-01-07T11:21:42.540Z,98930.66
2023-01-07T11:24:36.216Z,98920.03
2023-01-07T11:27:06.577Z,98912.59
2023-01-07T11:29:38.858Z,98909.94
2023-01-07T11:32:07.431Z,98899.56
2023-01-07T11:34:38.473Z,98894.34
2023-01-07T11:37:06.495Z,98898.56
2023-01-07T11:39:35.801Z,98890.59
2023-01-07T11:42:25.665Z,98883.84
2023-01-07T11:45:10.451Z,98877.78
2023-01-07T11:47:39.407Z,98871.94
2023-01-07T11:50:10.069Z,98870.75
2023-01-07T11:52:38.062Z,98863.84
2023-01-07T11:55:06.375Z,98858.84
2023-01-07T11:57:34.281Z,98857.22
2023-01-07T12:00:15.251Z,98856.34
2023-01-07T12:02:43.270Z,98850.03
2023-01-07T12:05:20.423Z,98834.50
2023-01-07T12:07:48.483Z,98841.22
2023-01-07T12:10:31.155Z,98828.59
2023-01-07T12:12:59.959Z,98818.66
2023-01-07T12:15:30.408Z,98807.03
2023-01-07T12:18:14.449Z,98817.44
2023-01-07T12:21:08.650Z,98809.88
2023-01-07T12:23:43.459Z,98804.47
2023-01-07T12:26:15.051Z,98801.56
2023-01-07T12:28:54.222Z,98791.97
2023-01-07T12:31:28.177Z,98801.44
2023-01-07T12:34:07.578Z,98792.25
2023-01-07T12:36:42.566Z,98791.47
2023-01-07T12:39:14.596Z,98790.75
2023-01-07T12:41:44.868Z,98772.47
2023-01-07T12:44:14.737Z,98765.50
2023-01-07T12:46:45.595Z,98768.78
2023-01-07T12:49:16.279Z,98768.78
2023-01-07T12:51:48.156Z,98764.66
2023-01-07T12:54:19.172Z,98763.38
2023-01-07T12:56:50.617Z,98763.75
2023-01-07T12:59:47.163Z,98750.53
2023-01-07T13:02:19.771Z,98760.63
2023-01-07T13:04:51.530Z,98747.25
2023-01-07T13:07:25.916Z,98747.47
2023-01-07T13:09:56.402Z,98750.22
2023-01-07T13:12:45.482Z,98745.63
2023-01-07T13:15:22.043Z,98742.41
2023-01-07T13:17:51.311Z,98739.00
2023-01-07T13:20:36.418Z,98745.13
2023-01-07T13:23:06.397Z,98747.75
2023-01-07T13:25:42.286Z,98754.88
2023-01-07T13:28:31.458Z,98744.34
2023-01-07T13:31:13.682Z,98745.06
2023-01-07T13:33:45.256Z,98731.41
2023-01-07T13:36:24.420Z,98727.91
2023-01-07T13:39:19.066Z,98732.09
2023-01-07T13:41:59.871Z,98735.16
2023-01-07T13:44:58.225Z,98715.59
2023-01-07T13:47:28.225Z,98723.06
2023-01-07T13:49:57.695Z,98723.72
2023-01-07T13:52:27.167Z,98718.59
2023-01-07T13:54:57.927Z,98722.56
2023-01-07T13:57:49.556Z,98712.25
2023-01-07T14:00:40.563Z,98719.22
2023-01-07T14:03:40.590Z,98718.09
2023-01-07T14:06:45.399Z,98723.22
2023-01-07T14:09:33.682Z,98713.19
2023-01-07T14:12:30.399Z,98707.63
2023-01-07T14:15:12.148Z,98689.50
2023-01-07T14:17:47.999Z,98694.03
2023-01-07T14:20:19.195Z,98696.13
2023-01-07T14:22:51.669Z,98688.66
2023-01-07T14:25:35.937Z,98674.16
2023-01-07T14:28:21.331Z,98695.13
2023-01-07T14:30:49.931Z,98686.16
2023-01-07T14:33:20.830Z,98689.50
2023-01-07T14:35:55.515Z,98678.13
2023-01-07T14:38:55.540Z,98683.09
2023-01-07T14:41:23.243Z,98686.16
2023-01-07T14:44:23.733Z,98681.75
2023-01-07T14:46:52.323Z,98670.31
2023-01-07T14:49:42.036Z,98665.41
2023-01-07T14:52:18.605Z,98677.75
2023-01-07T14:55:27.571Z,98670.34
2023-01-07T14:58:02.077Z,98683.59
2023-01-07T15:01:01.992Z,98679.53
2023-01-07T15:03:51.090Z,98681.75
2023-01-07T15:06:27.642Z,98684.94
2023-01-07T15:09:17.953Z,98682.47
2023-01-07T15:12:03.799Z,98689.22
2023-01-07T15:14:53.143Z,98681.63
2023-01-07T15:17:22.255Z,98681.69
2023-01-07T15:19:49.981Z,98679.56
2023-01-07T15:22:35.415Z,98675.78
2023-01-07T15:25:09.196Z,98686.09
2023-01-07T15:27:43.425Z,98692.41
2023-01-07T15:30:22.063Z,98686.66
2023-01-07T15:32:55.621Z,98683.69
2023-01-07T15:35:24.849Z,98681.09
2023-01-07T15:37:52.585Z,98681.31
2023-01-07T15:40:21.747Z,98672.06
2023-01-07T15:42:52.659Z,98680.31
2023-01-07T15:45:22.493Z,98676.97
2023-01-07T15:47:51.631Z,98675.88
2023-01-07T15:50:24.861Z,98670.69
2023-01-07T15:52:55.044Z,98657.81
2023-01-07T15:55:28.740Z,98661.47
2023-01-07T15:58:02.226Z,98666.50
2023-01-07T16:00:29.897Z,98664.06
2023-01-07T16:02:59.212Z,98664.13
2023-01-07T16:05:27.115Z,98663.25
2023-01-07T16:07:56.515Z,98662.91
2023-01-07T16:10:26.207Z,98653.13
2023-01-07T16:12:55.398Z,98620.38
2023-01-07T16:15:25.453Z,98624.91
2023-01-07T16:17:54.082Z,98623.19
2023-01-07T16:20:25.850Z,98624.06
2023-01-07T16:23:06.012Z,98628.72
2023-01-07T16:25:36.302Z,98633.13
2023-01-07T16:28:04.491Z,98624.59
2023-01-07T16:30:32.426Z,98630.22
2023-01-07T16:33:00.317Z,98613.69
2023-01-07T16:35:31.981Z,98618.47
2023-01-07T16:40:29.387Z,98617.09
2023-01-07T16:45:27.849Z,98605.81
2023-01-07T16:48:03.747Z,98594.66
2023-01-07T16:50:38.885Z,98610.88
2023-01-07T16:53:21.836Z,98610.81
2023-01-07T16:55:50.949Z,98601.81
2023-01-07T16:58:27.257Z,98599.97
2023-01-07T17:00:56.573Z,98606.06
2023-01-07T17:03:25.494Z,98597.47
2023-01-07T17:06:03.358Z,98598.34
2023-01-07T17:08:31.454Z,98593.22
2023-01-07T17:11:05.697Z,98578.84
2023-01-07T17:13:38.366Z,98586.19
2023-01-07T17:16:27.122Z,98584.94
2023-01-07T17:18:55.711Z,98579.16
2023-01-07T17:21:45.580Z,98582.78
2023-01-07T17:24:48.160Z,98590.34
2023-01-07T17:27:25.428Z,98563.53
2023-01-07T17:29:53.396Z,98580.53
2023-01-07T17:32:21.403Z,98587.53
2023-01-07T17:34:49.090Z,98585.66
2023-01-07T17:37:18.690Z,98567.06
2023-01-07T17:39:46.300Z,98579.81
2023-01-07T17:42:42.657Z,98577.44
2023-01-07T17:45:15.415Z,98579.00
2023-01-07T17:47:43.113Z,98574.16
2023-01-07T17:50:14.056Z,98554.91
2023-01-07T17:52:44.799Z,98570.91
2023-01-07T17:55:15.337Z,98570.91
2023-01-07T17:57:42.999Z,98568.16
2023-01-07T18:00:15.972Z,98550.75
2023-01-07T18:02:43.729Z,98558.00
2023-01-07T18:05:15.272Z,98569.66
2023-01-07T18:07:44.298Z,98559.94
2023-01-07T18:10:16.200Z,98564.22
2023-01-07T18:12:43.673Z,98549.53
2023-01-07T18:15:18.354Z,98563.69
2023-01-07T18:17:46.353Z,98556.84
2023-01-07T18:20:14.646Z,98553.91
2023-01-07T18:22:44.417Z,98552.53
2023-01-07T18:25:20.926Z,98545.94
2023-01-07T18:27:49.207Z,98544.59
2023-01-07T18:30:19.394Z,98547.09
2023-01-07T18:32:48.189Z,98540.56
2023-01-07T18:35:18.942Z,98538.44
2023-01-07T18:37:50.457Z,98535.44
2023-01-07T18:40:19.056Z,98538.31
2023-01-07T18:42:46.724Z,98537.75
2023-01-07T18:45:14.715Z,98534.03
2023-01-07T18:47:43.376Z,98543.69
2023-01-07T18:50:10.999Z,98541.53
2023-01-07T18:52:39.038Z,98534.47
2023-01-07T18:55:09.757Z,98531.84
2023-01-07T18:57:37.911Z,98523.66
2023-01-07T19:00:06.273Z,98516.63
2023-01-07T19:02:33.907Z,98515.25
2023-01-07T19:05:01.703Z,98515.44
2023-01-07T19:07:31.095Z,98512.69
2023-01-07T19:09:58.961Z,98498.13
2023-01-07T19:12:28.217Z,98495.50
2023-01-07T19:14:55.829Z,98455.38
2023-01-07T19:17:23.645Z,98500.94
2023-01-07T19:19:51.537Z,98503.19
2023-01-07T19:22:20.182Z,98515.38
2023-01-07T19:24:47.866Z,98509.72
2023-01-07T19:27:15.566Z,98513.97
2023-01-07T19:29:44.734Z,98513.41
2023-01-07T19:32:12.370Z,98506.16
2023-01-07T19:34:40.033Z,98506.22
2023-01-07T19:37:07.683Z,98517.28
2023-01-07T19:39:35.438Z,98512.16
2023-01-07T19:42:03.113Z,98513.19
2023-01-07T19:44:30.715Z,98508.00
2023-01-07T19:46:59.632Z,98501.91
2023-01-07T19:49:29.249Z,98501.06
2023-01-07T19:51:56.785Z,98487.72
2023-01-07T19:54:24.511Z,98497.66
2023-01-07T19:56:52.098Z,98493.50
2023-01-07T19:59:19.716Z,98489.25
2023-01-07T20:01:49.568Z,98486.31
2023-01-07T20:04:18.740Z,98489.56
2023-01-07T20:06:47.915Z,98473.41
2023-01-07T20:09:16.230Z,98492.31
2023-01-07T20:11:43.949Z,98501.09
2023-01-07T20:14:12.426Z,98501.31
2023-01-07T20:16:41.633Z,98486.53
2023-01-07T20:19:11.268Z,98499.78
2023-01-07T20:21:40.800Z,98491.56
2023-01-07T20:24:09.105Z,98497.47
2023-01-07T20:26:38.121Z,98504.75
2023-01-07T20:29:05.989Z,98507.72
2023-01-07T20:31:33.964Z,98514.97
2023-01-07T20:34:01.836Z,98516.00
2023-01-07T20:36:31.151Z,98512.41
2023-01-07T20:39:05.692Z,98508.56
2023-01-07T20:41:34.207Z,98503.88
2023-01-07T20:44:02.861Z,98510.59
2023-01-07T20:46:31.437Z,98513.22
2023-01-07T20:48:59.456Z,98514.06
2023-01-07T20:51:27.324Z,98512.09
2023-01-07T20:53:54.937Z,98513.63
2023-01-07T20:56:24.768Z,98509.97
2023-01-07T20:58:52.484Z,98506.84
2023-01-07T21:01:21.338Z,98495.63
2023-01-07T21:03:49.757Z,98453.88
2023-01-07T21:06:19.025Z,98492.56
2023-01-07T21:08:47.637Z,98487.84
2023-01-07T21:11:16.562Z,98491.66
2023-01-07T21:13:45.581Z,98485.88
2023-01-07T21:16:13.813Z,98460.31
2023-01-07T21:18:42.025Z,98487.75
2023-01-07T21:21:11.147Z,98478.94
2023-01-07T21:23:38.735Z,98477.13
2023-01-07T21:26:07.140Z,98466.53
2023-01-07T21:28:35.236Z,98467.97
2023-01-07T21:31:08.559Z,98462.94
2023-01-07T21:36:31.600Z,98474.13
2023-01-07T21:39:01.687Z,98466.91
2023-01-07T21:43:58.766Z,98463.06
2023-01-07T21:48:53.745Z,98461.50
2023-01-07T21:53:48.701Z,98453.00
2023-01-07T21:58:46.136Z,98460.59
2023-01-07T22:06:10.669Z,98465.41
2023-01-07T22:11:07.629Z,98465.31
2023-01-07T22:16:04.744Z,98464.16
2023-01-07T22:21:01.453Z,98457.34
2023-01-07T22:23:29.218Z,98455.84
2023-01-07T22:26:03.305Z,98465.78
2023-01-07T22:28:32.299Z,98462.03
2023-01-07T22:31:01.345Z,98460.25
2023-01-07T22:35:58.661Z,98449.53
2023-01-07T22:40:55.892Z,98459.09
2023-01-07T22:43:25.113Z,98457.97
2023-01-07T22:45:55.817Z,98457.03
2023-01-07T22:48:27.132Z,98456.81
2023-01-07T22:50:56.677Z,98454.97
2023-01-07T22:58:27.334Z,98445.84
2023-01-07T23:01:13.773Z,98430.59
2023-01-07T23:09:01.517Z,98409.28
2023-01-07T23:11:46.993Z,98389.22
2023-01-07T23:14:16.397Z,98404.78
2023-01-07T23:16:44.297Z,98409.66
2023-01-07T23:21:43.310Z,98388.56
2023-01-07T23:24:11.495Z,98394.44
2023-01-07T23:26:39.474Z,98396.75
2023-01-07T23:31:37.284Z,98383.06
2023-01-07T23:34:05.391Z,98381.97
2023-01-07T23:36:34.739Z,98377.88
2023-01-07T23:39:02.368Z,98323.31
2023-01-07T23:41:30.151Z,98330.66
2023-01-07T23:43:57.837Z,98356.31
2023-01-07T23:46:25.552Z,98351.75
2023-01-07T23:48:54.748Z,98336.97
2023-01-07T23:51:22.535Z,98296.00
2023-01-07T23:53:50.371Z,98336.59
2023-01-07T23:56:19.529Z,98287.50
2023-01-07T23:58:46.748Z,98331.03
